Flight Track Log - Related Links

Times and Time Zones

All times are in EDT time to prevent confusion due to time zone crossing. See the EJA922 flight status page for this flight to view local times or setup timezone preferences in your user account.

Time Position Orientation Groundspeed Altitude Reporting Facility
EDT Latitude Longitude Course Direction KTS MPH feet Rate Location/Type
Wed 12:21:34 PM 39.2881 -106.9756 290° West 245 282 13,700  Level Denver Center
Wed 12:22:36 PM 39.3156 -107.0653 292° West 274 315 17,000 2,032 Climbing Denver Center
Wed 12:23:38 PM 39.3603 -107.1667 300° West 327 376 17,900 1,694 Climbing Denver Center
Wed 12:24:40 PM 39.3461 -107.2967 262° West 359 413 20,500 2,323 Climbing Denver Center
Wed 12:25:42 PM 39.3208 -107.4272 256° West 369 425 22,700 2,032 Climbing Denver Center
Wed 12:26:00 PM 39.2698 -107.7041 252° West  Level FlightAware Approximate
Wed 12:26:44 PM 39.2961 -107.5619 257° West 382 440 24,700  Level Denver Center
Wed 12:27:46 PM 39.2706 -107.7011 257° West 395 455 26,500 1,742 Climbing Denver Center
Wed 12:28:48 PM 39.2347 -107.8358 251° West 405 466 28,300 1,645 Climbing Denver Center
Wed 12:29:50 PM 39.1711 -107.9903 242° Southwest 412 474 29,900 1,500 Climbing Denver Center
Wed 12:30:52 PM 39.1111 -108.1331 242° Southwest 420 483 31,400 1,500 Climbing Denver Center
Wed 12:31:54 PM 39.0542 -108.2672 241° Southwest 426 490 33,000 1,355 Climbing Denver Center
Wed 12:32:56 PM 39.0006 -108.3994 242° Southwest 445 512 34,200 1,776 Climbing Denver Center
Wed 12:33:59 PM 38.9294 -108.5639 241° Southwest 447 514 36,700 2,400 Climbing Denver Center
Wed 12:35:01 PM 38.8747 -108.6947 242° Southwest 421 484 39,200 1,597 Climbing Denver Center
Wed 12:36:03 PM 38.8197 -108.8247 242° Southwest 417 480 40,000 387 Climbing Denver Center
Wed 12:37:05 PM 38.7558 -108.9767 242° Southwest 451 519 40,000  Level Denver Center
Wed 12:38:07 PM 38.6914 -109.1264 241° Southwest 479 551 40,000  Level Denver Center
Wed 12:39:09 PM 38.6208 -109.2911 241° Southwest 491 565 40,000  Level Denver Center
Wed 12:40:11 PM 38.5611 -109.4286 241° Southwest 486 559 40,000  Level Denver Center
Wed 12:41:13 PM 38.4878 -109.5958 241° Southwest 483 556 40,000  Level Denver Center
Wed 12:42:15 PM 38.4242 -109.7408 241° Southwest 488 562 40,000  Level Denver Center
Wed 12:43:17 PM 38.3508 -109.9092 241° Southwest 488 562 40,000  Level Denver Center
Wed 12:44:19 PM 38.2858 -110.0597 241° Southwest 486 559 40,000  Level Denver Center
Wed 12:45:21 PM 38.2189 -110.2083 240° Southwest 484 557 40,000  Level Denver Center
Wed 12:46:23 PM 38.1519 -110.3581 240° Southwest 487 560 40,000  Level Denver Center
Wed 12:47:23 PM 38.0861 -110.5094 241° Southwest 490 564 40,000  Level Salt Lake Center
Wed 12:48:25 PM 38.0181 -110.6600 240° Southwest 492 566 40,000  Level Salt Lake Center
Wed 12:49:29 PM 37.9358 -110.8389 240° Southwest 490 564 40,000  Level Denver Center
Wed 12:50:31 PM 37.8683 -110.9878 240° Southwest 488 562 40,000  Level Denver Center
Wed 12:51:33 PM 37.8014 -111.1356 240° Southwest 486 559 40,000  Level Denver Center
Wed 12:52:35 PM 37.7328 -111.2828 240° Southwest 486 559 40,000  Level Denver Center
Wed 12:53:37 PM 37.6669 -111.4278 240° Southwest 481 554 40,000  Level Denver Center
Wed 12:54:40 PM 37.5867 -111.6006 240° Southwest 477 549 40,000  Level Denver Center
Wed 12:55:42 PM 37.5194 -111.7450 240° Southwest 476 548 40,000  Level Denver Center
Wed 12:56:44 PM 37.4525 -111.8886 240° Southwest 476 548 40,000  Level Denver Center
Wed 12:57:46 PM 37.3844 -112.0317 239° Southwest 476 548 40,000  Level Denver Center
Wed 12:58:48 PM 37.3133 -112.1717 237° Southwest 474 545 40,000  Level Denver Center
Wed 12:59:48 PM 37.2364 -112.3075 235° Southwest 473 544 40,000  Level Salt Lake Center
Wed 01:00:50 PM 37.1608 -112.4444 235° Southwest 474 545 40,000  Level Salt Lake Center
Wed 01:01:52 PM 37.0844 -112.5800 235° Southwest 474 545 40,000  Level Salt Lake Center
Wed 01:02:54 PM 37.0081 -112.7158 235° Southwest 474 545 40,000  Level Salt Lake Center
Wed 01:03:56 PM 36.9164 -112.8797 235° Southwest 476 548 40,000  Level Salt Lake Center
Wed 01:04:58 PM 36.8386 -113.0156 234° Southwest 478 550 40,000  Level Salt Lake Center
Wed 01:06:00 PM 36.7556 -113.1439 231° Southwest 477 549 40,000  Level Salt Lake Center
Wed 01:07:02 PM 36.6736 -113.2728 232° Southwest 474 545 40,000  Level Salt Lake Center
Wed 01:08:04 PM 36.5911 -113.4033 232° Southwest 478 550 40,000  Level Salt Lake Center
Wed 01:09:34 PM 36.4561 -113.6136 231° Southwest 480 552 40,000  Level Los Angeles Center
Wed 01:10:37 PM 36.3736 -113.7439 232° Southwest 480 552 40,000  Level Los Angeles Center
Wed 01:11:39 PM 36.2900 -113.8747 232° Southwest 482 555 40,000  Level Los Angeles Center
Wed 01:12:41 PM 36.2072 -114.0031 231° Southwest 478 550 40,000  Level Los Angeles Center
Wed 01:13:43 PM 36.1231 -114.1319 231° Southwest 480 552 40,000  Level Los Angeles Center
Wed 01:14:45 PM 36.0389 -114.2614 231° Southwest 481 554 40,000  Level Los Angeles Center
Wed 01:15:47 PM 35.9369 -114.4156 231° Southwest 481 554 40,000  Level Los Angeles Center
Wed 01:16:49 PM 35.8703 -114.5192 232° Southwest 481 554 40,000  Level Los Angeles Center
Wed 01:17:51 PM 35.7856 -114.6475 231° Southwest 481 554 40,000  Level Los Angeles Center
Wed 01:18:54 PM 35.6839 -114.8019 231° Southwest 480 552 40,000  Level Los Angeles Center
Wed 01:19:56 PM 35.6000 -114.9300 231° Southwest 480 552 40,000  Level Los Angeles Center
Wed 01:20:58 PM 35.5167 -115.0564 231° Southwest 476 548 40,000  Level Los Angeles Center
Wed 01:22:00 PM 35.4306 -115.1836 230° Southwest 479 551 40,000 -96 Level Los Angeles Center
Wed 01:23:03 PM 35.3281 -115.3381 231° Southwest 484 557 39,800 -912 Descending Los Angeles Center
Wed 01:24:05 PM 35.2414 -115.4650 230° Southwest 484 557 38,100 -1,742 Descending Los Angeles Center
Wed 01:25:07 PM 35.1672 -115.5781 231° Southwest 479 551 36,200 -1,694 Descending Los Angeles Center
Wed 01:26:09 PM 35.0969 -115.6814 230° Southwest 478 550 34,600 -1,065 Descending Los Angeles Center
Wed 01:27:11 PM 34.9797 -115.8528 230° Southwest 480 552 34,000 -290 Descending Los Angeles Center
Wed 01:28:13 PM 34.9103 -115.9542 230° Southwest 483 556 34,000  Level Los Angeles Center
Wed 01:29:16 PM 34.8064 -116.1061 230° Southwest 486 559 34,000  Level Los Angeles Center
Wed 01:30:18 PM 34.7203 -116.2308 230° Southwest 482 555 34,000  Level Los Angeles Center
Wed 01:31:20 PM 34.6333 -116.3569 230° Southwest 485 558 34,000 -581 Level Los Angeles Center
Wed 01:32:22 PM 34.5458 -116.4822 230° Southwest 486 559 32,800 -2,177 Descending Los Angeles Center
Wed 01:33:24 PM 34.4397 -116.6342 230° Southwest 490 564 29,500 -2,691 Descending Los Angeles Center
Wed 01:34:38 PM 34.3508 -116.7625 230° Southwest 495 570 26,700 -2,628 Descending Los Angeles Center
Wed 01:35:41 PM 34.2503 -116.9031 229° Southwest 461 531 23,500 -2,592 Descending Los Angeles Center
Wed 01:36:43 PM 34.1803 -117.0042 230° Southwest 400 460 21,300 -2,216 Descending Los Angeles Center
Wed 01:37:32 PM 34.1167 -117.1000 231° Southwest 360 414 19,400 -2,018 Descending Southern California TRACON
Wed 01:38:33 PM 34.0667 -117.2000 239° Southwest 351 404 17,600 -1,537 Descending Southern California TRACON
Wed 01:39:33 PM 34.0333 -117.3000 248° West 362 417 16,300 -1,550 Descending Southern California TRACON
Wed 01:40:33 PM 34.0333 -117.4333 270° West 356 410 14,500 -1,600 Descending Southern California TRACON
Wed 01:41:33 PM 34.0167 -117.5500 260° West 336 387 13,100 -1,300 Descending Southern California TRACON
Wed 01:42:33 PM 34.0167 -117.6500 270° West 343 395 11,900 -1,339 Descending Southern California TRACON
Wed 01:43:34 PM 34.0000 -117.7500 259° West 280 322 10,400 -1,537 Descending Southern California TRACON
Wed 01:44:34 PM 33.9833 -117.8333 256° West 285 328 8,800 -1,500 Descending Southern California TRACON
Wed 01:45:34 PM 33.9833 -117.9333 270° West 254 292 7,400 -1,350 Descending Southern California TRACON
Wed 01:46:34 PM 33.9833 -118.0000 270° West 236 272 6,100 -1,350 Descending Southern California TRACON
Wed 01:47:34 PM 33.9667 -118.0833 256° West 238 274 4,700 -1,250 Descending Southern California TRACON
Wed 01:48:34 PM 33.9667 -118.1667 270° West 226 260 3,600 -1,074 Descending Southern California TRACON
Wed 01:49:09 PM 33.9553 -118.2017 249° West 228 262 3,000 -990 Descending Los Angeles Center
Wed 01:50:11 PM 33.9486 -118.2700 263° West 218 251 2,000 -484 Descending Los Angeles Center
Wed 01:51:13 PM 33.9442 -118.3267 265° West 190 219 2,000  Level Los Angeles Center
Wed 01:52:16 PM 33.9367 -118.3914 262° West 190 219 2,000 178 Level Los Angeles Center
Wed 01:54:35 PM 33.8500 -118.4833 221° Southwest 240 276 2,600 905 Climbing Southern California TRACON
Wed 01:55:35 PM 33.8333 -118.4167 107° East 243 280 5,000 1,190 Climbing Southern California TRACON
Wed 01:56:36 PM 33.8500 -118.3500 73° East 240 276 5,000  Level Southern California TRACON
Wed 01:57:36 PM 33.8500 -118.2667 90° East 228 262 5,000  Level Southern California TRACON
Wed 01:58:41 PM 33.8667 -118.1975 74° East 229 264 5,000  Level Los Angeles Center
Wed 01:59:37 PM 33.8833 -118.1167 76° East 219 252 5,000  Level Southern California TRACON
Wed 02:00:37 PM 33.8833 -118.0500 90° East 198 228 5,000  Level Southern California TRACON
Wed 02:01:37 PM 33.9167 -118.0167 40° Northeast 208 239 5,000 -100 Level Southern California TRACON
Wed 02:02:37 PM 33.9667 -118.0500 331° Northwest 206 237 4,800 -397 Descending Southern California TRACON
Wed 02:03:38 PM 33.9667 -118.1167 270° West 196 226 4,200 -762 Descending Southern California TRACON
Wed 02:04:43 PM 33.9500 -118.1833 253° West 197 227 3,200 -960 Descending Southern California TRACON
Wed 02:05:43 PM 33.9500 -118.2500 270° West 185 213 2,200 -887 Descending Southern California TRACON
Wed 02:06:38 PM 33.9500 -118.3000 270° West 139 160 1,500 -678 Descending Southern California TRACON
Wed 02:07:38 PM 33.9500 -118.3333 270° West 130 150 900 -497 Descending Southern California TRACON
Wed 02:09:03 PM 33.9369 -118.3969 256° West 133 153 300 -424 Descending Los Angeles Center

Login

Don't have an account? Register now (free) for customized features, flight alerts, and more!